Time;durP1;ratioP1;P1;durP2;ratioP2;P2;SDS_P1;SDS_P2;PMS_P1;PMS_P2;Temp;Humidity;BMP_temperature;BMP_pressure;BME280_temperature;BME280_humidity;BME280_pressure;Samples;Min_cycle;Max_cycle;Signal;HPM_P1;HPM_P2
2022/12/10 00:01:50;;;;;;;23.85;14.30;;;4.60;71.70;;;;;;5033351;28;20045;-63
2022/12/10 00:04:16;;;;;;;24.17;14.68;;;4.50;71.60;;;;;;5036915;28;20018;-63
2022/12/10 00:06:43;;;;;;;30.45;15.43;;;4.60;71.60;;;;;;5044180;28;20358;-62
2022/12/10 00:09:14;;;;;;;25.90;14.65;;;4.50;71.50;;;;;;5044755;28;20044;-63
2022/12/10 00:11:40;;;;;;;26.95;15.10;;;4.50;71.60;;;;;;5042174;28;20404;-64
2022/12/10 00:14:09;;;;;;;24.73;15.23;;;4.50;71.50;;;;;;5018137;28;20036;-63
2022/12/10 00:16:35;;;;;;;26.45;15.52;;;4.50;71.50;;;;;;5022972;28;20030;-64
2022/12/10 00:19:02;;;;;;;28.92;15.95;;;4.50;71.60;;;;;;5040674;28;20025;-64
2022/12/10 00:21:30;;;;;;;29.15;16.83;;;4.50;71.50;;;;;;5035745;28;20055;-63
2022/12/10 00:23:57;;;;;;;25.08;14.55;;;4.50;71.60;;;;;;5045478;28;20037;-64
2022/12/10 00:26:32;;;;;;;26.90;15.88;;;4.50;71.70;;;;;;5039440;28;20045;-64
2022/12/10 00:29:00;;;;;;;24.63;15.45;;;4.50;71.70;;;;;;5043580;28;20571;-64
2022/12/10 00:31:29;;;;;;;32.08;16.23;;;4.50;71.70;;;;;;5043591;28;20057;-64
2022/12/10 00:33:56;;;;;;;24.15;14.63;;;4.60;71.70;;;;;;5035221;28;20021;-63
2022/12/10 00:36:31;;;;;;;25.20;15.50;;;4.50;71.50;;;;;;5038773;28;20044;-64
2022/12/10 00:38:57;;;;;;;27.95;15.70;;;4.50;71.40;;;;;;5041579;28;20052;-64
2022/12/10 00:41:23;;;;;;;32.13;16.83;;;4.60;71.40;;;;;;5039559;28;20021;-64
2022/12/10 00:43:49;;;;;;;28.48;16.60;;;4.50;71.50;;;;;;5041717;28;20036;-64
2022/12/10 00:46:16;;;;;;;31.70;18.10;;;4.50;71.50;;;;;;5033355;28;20022;-63
2022/12/10 00:48:43;;;;;;;35.92;19.08;;;4.50;71.60;;;;;;5030981;28;20037;-64
2022/12/10 00:51:17;;;;;;;31.02;16.63;;;4.50;71.60;;;;;;5039591;28;20229;-64
2022/12/10 00:53:44;;;;;;;27.42;16.60;;;4.50;71.70;;;;;;5041229;28;20083;-64
2022/12/10 00:56:11;;;;;;;27.17;15.30;;;4.50;71.60;;;;;;5038839;28;20052;-63
2022/12/10 00:58:38;;;;;;;28.02;15.93;;;4.60;71.60;;;;;;5044675;28;20021;-64
2022/12/10 01:01:15;;;;;;;26.50;15.77;;;4.50;71.60;;;;;;5043139;28;20354;-64
2022/12/10 01:03:41;;;;;;;26.92;15.32;;;4.60;71.50;;;;;;5043290;28;20045;-64
2022/12/10 01:06:10;;;;;;;28.90;17.00;;;4.60;71.40;;;;;;5047883;28;20025;-64
2022/12/10 01:08:36;;;;;;;30.25;16.20;;;4.50;71.30;;;;;;5039520;28;20033;-64
2022/12/10 01:11:02;;;;;;;24.55;14.63;;;4.50;71.40;;;;;;5017295;28;20042;-64
2022/12/10 01:13:28;;;;;;;29.20;15.82;;;4.50;71.50;;;;;;5042727;28;20022;-64
2022/12/10 01:15:53;;;;;;;28.70;15.80;;;4.50;71.50;;;;;;5018998;28;20045;-64
2022/12/10 01:18:19;;;;;;;31.73;16.95;;;4.50;71.50;;;;;;5038688;28;20060;-64
2022/12/10 01:20:44;;;;;;;26.33;15.93;;;4.50;71.60;;;;;;5044715;28;20025;-64
2022/12/10 01:23:10;;;;;;;24.40;14.98;;;4.50;72.40;;;;;;5036847;28;20025;-64
2022/12/10 01:25:36;;;;;;;26.48;16.02;;;4.50;71.70;;;;;;5038253;28;20037;-64
2022/12/10 01:28:01;;;;;;;27.10;15.95;;;4.50;71.70;;;;;;5034859;28;20080;-64
2022/12/10 01:30:27;;;;;;;27.27;16.80;;;4.50;71.70;;;;;;5020465;28;20037;-64
2022/12/10 01:32:53;;;;;;;26.13;15.60;;;4.50;71.80;;;;;;5039325;28;20036;-64
2022/12/10 01:35:18;;;;;;;27.52;16.35;;;4.50;71.80;;;;;;5037321;28;20029;-64
2022/12/10 01:37:44;;;;;;;25.23;14.65;;;4.50;71.80;;;;;;5038919;28;20033;-64
2022/12/10 01:40:10;;;;;;;25.63;14.27;;;4.50;71.90;;;;;;5021617;28;20029;-65
2022/12/10 01:42:36;;;;;;;26.55;15.57;;;4.50;71.70;;;;;;5033425;28;20040;-64
2022/12/10 01:45:07;;;;;;;27.83;15.93;;;4.50;71.70;;;;;;5038508;28;20027;-64
2022/12/10 01:47:33;;;;;;;26.30;15.27;;;4.50;71.80;;;;;;5041143;28;20420;-64
2022/12/10 01:50:00;;;;;;;29.98;16.55;;;4.50;71.80;;;;;;5033408;28;20033;-64
2022/12/10 01:52:26;;;;;;;25.48;15.45;;;4.50;71.70;;;;;;5043244;28;20017;-64
2022/12/10 01:54:52;;;;;;;24.90;15.30;;;4.50;71.60;;;;;;5042513;28;20025;-64
2022/12/10 01:57:25;;;;;;;24.70;15.13;;;4.50;71.70;;;;;;5046001;28;20029;-64
2022/12/10 02:00:06;;;;;;;27.77;15.45;;;4.50;72.40;;;;;;5030139;28;20029;-63
2022/12/10 02:02:58;;;;;;;25.23;15.07;;;4.60;71.80;;;;;;5033960;28;20033;-63
2022/12/10 02:05:52;;;;;;;25.63;15.52;;;4.50;71.70;;;;;;5036452;28;20094;-63
2022/12/10 02:08:46;;;;;;;20.83;13.20;;;4.60;71.60;;;;;;5033876;28;20037;-62
2022/12/10 02:11:19;;;;;;;23.98;14.50;;;4.60;71.50;;;;;;5039938;28;20884;-62
2022/12/10 02:14:12;;;;;;;18.87;11.70;;;4.60;71.40;;;;;;5041649;28;20091;-62
2022/12/10 02:16:44;;;;;;;23.27;13.85;;;4.50;71.40;;;;;;5041024;28;20463;-64
2022/12/10 02:19:35;;;;;;;24.55;14.95;;;4.50;71.30;;;;;;5041141;28;20056;-63
2022/12/10 02:22:02;;;;;;;23.52;14.45;;;4.50;71.30;;;;;;5027408;28;20022;-63
2022/12/10 02:24:32;;;;;;;23.48;14.43;;;4.50;71.30;;;;;;5034814;28;20030;-64
2022/12/10 02:27:06;;;;;;;26.58;15.48;;;4.50;71.30;;;;;;5037851;28;20022;-62
2022/12/10 02:29:33;;;;;;;;;;;4.50;71.30;;;;;;5033914;28;20047;-62
2022/12/10 02:32:19;;;;;;;21.55;13.65;;;4.50;71.40;;;;;;5039141;28;19909;-62
2022/12/10 02:34:51;;;;;;;24.83;14.00;;;4.50;71.30;;;;;;5047929;28;20036;-63
2022/12/10 02:37:37;;;;;;;26.13;15.48;;;4.50;71.30;;;;;;5039751;28;20025;-62
2022/12/10 02:40:11;;;;;;;29.13;16.30;;;4.50;71.50;;;;;;5029039;28;20029;-62
2022/12/10 02:42:39;;;;;;;24.08;15.30;;;4.50;71.50;;;;;;5046779;28;20029;-62
2022/12/10 02:45:07;;;;;;;23.17;13.52;;;4.50;71.50;;;;;;5040167;28;20194;-63
2022/12/10 02:47:34;;;;;;;24.15;14.25;;;4.50;71.50;;;;;;5046440;28;20079;-64
2022/12/10 02:49:59;;;;;;;24.42;14.82;;;4.50;71.50;;;;;;5039651;28;20480;-64
2022/12/10 02:52:25;;;;;;;28.88;15.52;;;4.50;71.60;;;;;;5043631;28;20036;-63
2022/12/10 02:54:52;;;;;;;22.95;14.35;;;4.40;71.60;;;;;;5039282;28;20040;-64
2022/12/10 02:57:32;;;;;;;29.05;15.02;;;4.50;71.60;;;;;;5043037;28;20037;-64
2022/12/10 03:00:07;;;;;;;26.10;15.25;;;4.50;71.50;;;;;;5046891;28;20104;-64
2022/12/10 03:02:36;;;;;;;27.25;15.38;;;4.50;71.50;;;;;;5041154;28;20026;-64
2022/12/10 03:05:27;;;;;;;21.55;14.15;;;4.40;71.40;;;;;;5043889;28;20494;-64
2022/12/10 03:08:14;;;;;;;22.67;14.65;;;4.50;71.40;;;;;;5049494;28;20026;-63
2022/12/10 03:10:59;;;;;;;23.15;15.15;;;4.40;71.30;;;;;;5040138;28;20057;-63
2022/12/10 03:13:34;;;;;;;24.85;14.65;;;4.40;71.40;;;;;;5036811;28;20045;-63
2022/12/10 03:16:01;;;;;;;22.98;14.32;;;4.40;71.40;;;;;;5039394;28;20018;-64
2022/12/10 03:18:29;;;;;;;26.77;16.52;;;4.40;71.50;;;;;;5045912;28;20036;-63
2022/12/10 03:21:01;;;;;;;30.58;15.88;;;4.40;71.40;;;;;;5040497;28;20131;-62
2022/12/10 03:23:29;;;;;;;28.05;15.98;;;4.40;71.40;;;;;;5040265;28;20060;-63
2022/12/10 03:25:55;;;;;;;25.13;14.98;;;4.40;71.50;;;;;;5045869;28;20026;-63
2022/12/10 03:28:22;;;;;;;25.58;15.50;;;4.40;71.50;;;;;;5043067;28;20090;-62
2022/12/10 03:30:50;;;;;;;26.83;15.50;;;4.40;71.60;;;;;;5041684;28;20026;-63
2022/12/10 03:33:16;;;;;;;26.45;15.27;;;4.40;71.70;;;;;;5040111;28;20045;-63
2022/12/10 03:35:43;;;;;;;24.75;14.73;;;4.40;71.70;;;;;;5020364;28;20037;-63
2022/12/10 03:38:09;;;;;;;25.70;14.77;;;4.50;71.70;;;;;;5046733;28;20194;-63
2022/12/10 03:40:35;;;;;;;25.15;14.77;;;4.50;71.70;;;;;;5044497;28;20026;-62
2022/12/10 03:43:01;;;;;;;27.33;15.80;;;4.50;71.70;;;;;;5044340;28;20107;-63
2022/12/10 03:45:26;;;;;;;27.95;14.98;;;4.50;71.70;;;;;;5036513;28;20024;-62
2022/12/10 03:47:52;;;;;;;26.77;15.38;;;4.50;71.70;;;;;;5044220;28;20104;-62
2022/12/10 03:50:18;;;;;;;26.92;15.48;;;4.50;71.70;;;;;;5041708;28;20033;-63
2022/12/10 03:52:44;;;;;;;23.30;15.10;;;4.50;71.50;;;;;;5043645;28;20036;-64
2022/12/10 03:55:09;;;;;;;25.15;15.45;;;4.50;71.40;;;;;;5042815;28;20033;-64
2022/12/10 03:57:35;;;;;;;28.08;15.68;;;4.50;71.50;;;;;;5047480;28;20025;-64
2022/12/10 04:00:03;;;;;;;28.50;16.75;;;4.40;71.40;;;;;;5040592;28;20017;-62
2022/12/10 04:02:28;;;;;;;29.45;15.75;;;4.40;71.50;;;;;;5038080;28;20506;-63
2022/12/10 04:04:54;;;;;;;24.10;15.23;;;4.40;71.60;;;;;;5038746;28;20085;-63
2022/12/10 04:07:20;;;;;;;25.05;15.27;;;4.40;71.60;;;;;;5031538;28;20029;-62
2022/12/10 04:09:45;;;;;;;28.05;15.57;;;4.40;71.60;;;;;;5046986;28;20025;-64
2022/12/10 04:12:11;;;;;;;27.75;15.40;;;4.40;71.50;;;;;;5043960;28;20053;-63
2022/12/10 04:17:21;;;;;;;28.83;14.32;;;4.40;71.50;;;;;;5036048;28;20391;-63
2022/12/10 04:19:46;;;;;;;25.83;15.02;;;4.40;71.50;;;;;;4983539;28;20053;-62
2022/12/10 04:27:40;;;;;;;26.65;15.93;;;4.40;71.30;;;;;;5040674;28;20159;-63
2022/12/10 04:30:09;;;;;;;26.50;16.08;;;4.40;71.30;;;;;;5036535;28;20053;-63
2022/12/10 04:32:35;;;;;;;26.80;16.40;;;4.40;71.30;;;;;;5045225;28;20030;-62
2022/12/10 04:35:01;;;;;;;27.70;16.58;;;4.30;71.20;;;;;;5039596;28;20029;-65
2022/12/10 04:37:28;;;;;;;26.27;16.13;;;4.30;71.10;;;;;;5031060;28;20874;-62
2022/12/10 04:39:54;;;;;;;27.55;16.55;;;4.20;71.10;;;;;;5038601;28;20029;-63
2022/12/10 04:42:21;;;;;;;26.25;15.35;;;4.20;71.20;;;;;;5016940;28;20060;-63
2022/12/10 04:44:47;;;;;;;26.25;15.80;;;4.20;71.20;;;;;;5046056;28;20029;-63
2022/12/10 04:47:13;;;;;;;29.75;16.05;;;4.10;71.30;;;;;;5041586;28;20033;-62
2022/12/10 04:49:39;;;;;;;24.63;16.35;;;4.10;71.40;;;;;;5038765;28;20087;-63
2022/12/10 04:52:07;;;;;;;24.45;14.98;;;4.10;71.50;;;;;;5043274;28;20029;-62
2022/12/10 04:54:33;;;;;;;28.40;15.40;;;4.00;71.40;;;;;;5048257;28;20036;-63
2022/12/10 04:56:59;;;;;;;27.50;15.43;;;4.00;71.50;;;;;;5039890;28;20030;-63
2022/12/10 04:59:25;;;;;;;28.80;16.17;;;4.00;71.50;;;;;;5044874;28;20033;-62
2022/12/10 05:01:51;;;;;;;26.73;15.80;;;4.00;71.60;;;;;;5045051;28;20028;-63
2022/12/10 05:04:17;;;;;;;25.98;15.95;;;4.00;71.60;;;;;;5041545;28;20641;-62
2022/12/10 05:06:44;;;;;;;25.88;15.65;;;4.00;71.60;;;;;;5040211;28;20029;-63
2022/12/10 05:09:11;;;;;;;26.60;15.95;;;4.00;71.50;;;;;;5035177;28;20061;-63
2022/12/10 05:11:37;;;;;;;26.55;15.43;;;4.00;71.60;;;;;;5044947;28;20105;-63
2022/12/10 05:14:03;;;;;;;26.40;16.10;;;4.00;71.60;;;;;;5035797;28;20033;-63
2022/12/10 05:16:31;;;;;;;27.67;15.38;;;4.00;71.60;;;;;;5041764;28;20030;-63
2022/12/10 05:18:57;;;;;;;27.48;14.77;;;4.00;71.60;;;;;;5035187;28;20038;-64
2022/12/10 05:23:27;;;;;;;25.73;14.95;;;4.00;71.50;;;;;;5044753;28;20632;-63
2022/12/10 05:24:10;;;;;;;31.17;15.80;;;4.00;71.40;;;;;;5040878;28;20043;-62
2022/12/10 05:26:36;;;;;;;24.23;15.05;;;4.00;71.30;;;;;;5038845;28;20041;-62
2022/12/10 05:29:01;;;;;;;26.08;15.75;;;4.00;71.30;;;;;;5039767;28;20037;-63
2022/12/10 05:31:29;;;;;;;23.30;14.02;;;4.00;71.30;;;;;;5048651;28;20395;-62
2022/12/10 05:33:56;;;;;;;23.85;15.25;;;4.00;71.40;;;;;;5033791;28;20084;-62
2022/12/10 05:36:25;;;;;;;28.48;15.75;;;4.00;71.40;;;;;;5037241;28;20033;-63
2022/12/10 05:38:51;;;;;;;26.65;14.80;;;4.00;71.40;;;;;;5036629;28;20093;-62
2022/12/10 05:41:19;;;;;;;25.42;16.33;;;4.00;71.30;;;;;;5042515;28;20053;-62
2022/12/10 05:43:46;;;;;;;22.98;14.15;;;4.10;71.30;;;;;;5043420;28;20025;-63
2022/12/10 05:46:18;;;;;;;24.70;14.52;;;4.10;71.40;;;;;;5038033;28;20403;-62
2022/12/10 05:48:44;;;;;;;26.40;14.38;;;4.10;71.10;;;;;;5039516;28;20040;-62
2022/12/10 05:51:12;;;;;;;24.98;14.95;;;4.10;71.30;;;;;;5047287;28;20041;-63
2022/12/10 05:53:38;;;;;;;24.38;14.77;;;4.10;71.40;;;;;;5046059;28;20025;-64
2022/12/10 05:56:11;;;;;;;25.48;15.07;;;4.10;71.40;;;;;;5046202;28;20198;-62
2022/12/10 05:58:38;;;;;;;25.33;14.93;;;4.10;71.30;;;;;;5036597;28;20558;-63
2022/12/10 06:01:22;;;;;;;23.33;14.57;;;4.10;71.30;;;;;;5036194;28;20033;-63
2022/12/10 06:03:49;;;;;;;18.70;10.60;;;4.10;71.20;;;;;;5044196;28;20839;-62
2022/12/10 06:06:21;;;;;;;22.75;13.65;;;4.10;71.10;;;;;;5043370;28;20025;-63
2022/12/10 06:08:47;;;;;;;26.33;14.82;;;4.10;70.90;;;;;;5032672;28;20038;-65
2022/12/10 06:11:13;;;;;;;25.67;15.00;;;4.10;71.00;;;;;;5042283;28;20046;-62
2022/12/10 06:13:38;;;;;;;24.83;14.00;;;4.10;71.10;;;;;;5046087;28;20052;-63
2022/12/10 06:16:10;;;;;;;23.58;13.85;;;4.10;71.10;;;;;;5041015;28;20029;-63
2022/12/10 06:18:36;;;;;;;27.30;13.75;;;4.10;71.20;;;;;;5039717;28;20029;-65
2022/12/10 06:21:10;;;;;;;23.48;13.57;;;4.10;71.20;;;;;;5038280;28;20025;-64
2022/12/10 06:23:37;;;;;;;23.95;13.73;;;4.10;71.30;;;;;;5039973;28;20044;-64
2022/12/10 06:26:12;;;;;;;22.65;14.02;;;4.10;71.30;;;;;;5044344;28;20025;-62
2022/12/10 06:28:38;;;;;;;25.80;13.23;;;4.10;71.40;;;;;;5030065;28;20034;-63
2022/12/10 06:31:04;;;;;;;20.88;14.18;;;4.10;71.40;;;;;;5044677;28;20033;-64
2022/12/10 06:33:30;;;;;;;26.27;14.65;;;4.10;71.40;;;;;;5046682;28;20040;-62
2022/12/10 06:35:56;;;;;;;22.10;14.25;;;4.10;71.50;;;;;;5044654;28;20025;-63
2022/12/10 06:38:22;;;;;;;25.35;14.98;;;4.20;71.40;;;;;;5047548;28;20025;-62
2022/12/10 06:40:48;;;;;;;23.63;14.30;;;4.20;71.30;;;;;;5035482;28;20080;-65
2022/12/10 06:43:14;;;;;;;25.70;14.93;;;4.20;71.20;;;;;;5039968;28;20036;-64
2022/12/10 06:45:41;;;;;;;25.25;15.38;;;4.20;71.30;;;;;;5035890;28;20048;-65
2022/12/10 06:48:07;;;;;;;21.60;13.57;;;4.20;71.30;;;;;;5042187;28;20024;-62
2022/12/10 06:50:32;;;;;;;26.50;15.18;;;4.20;71.40;;;;;;5045493;28;20368;-62
2022/12/10 06:52:58;;;;;;;25.20;14.90;;;4.20;71.30;;;;;;5042511;28;20028;-62
2022/12/10 06:55:24;;;;;;;24.65;14.25;;;4.20;71.30;;;;;;5042783;28;20055;-63
2022/12/10 06:57:53;;;;;;;24.35;14.15;;;4.20;71.90;;;;;;5050634;28;20039;-61
2022/12/10 07:00:20;;;;;;;24.17;13.82;;;4.20;71.10;;;;;;5027966;28;20033;-62
2022/12/10 07:02:46;;;;;;;27.55;15.70;;;4.20;71.10;;;;;;5032901;28;20024;-64
2022/12/10 07:05:12;;;;;;;24.25;15.75;;;4.20;71.10;;;;;;5036458;28;20084;-61
2022/12/10 07:07:38;;;;;;;27.10;15.63;;;4.20;71.20;;;;;;5038424;28;20053;-62
2022/12/10 07:10:05;;;;;;;24.92;14.88;;;4.20;71.20;;;;;;5045931;28;20455;-62
2022/12/10 07:12:30;;;;;;;27.20;15.63;;;4.20;71.20;;;;;;5027153;28;20480;-62
2022/12/10 07:14:56;;;;;;;24.85;15.48;;;4.20;71.20;;;;;;5035025;28;20076;-63
2022/12/10 07:17:21;;;;;;;23.50;14.75;;;4.30;71.20;;;;;;5035804;28;20027;-62
2022/12/10 07:19:47;;;;;;;24.08;15.10;;;4.20;71.10;;;;;;5041284;28;20053;-62
2022/12/10 07:22:13;;;;;;;26.67;15.88;;;4.30;71.10;;;;;;5043855;28;20025;-62
2022/12/10 07:24:38;;;;;;;33.28;18.05;;;4.20;71.10;;;;;;5039960;28;20142;-62
2022/12/10 07:27:06;;;;;;;32.47;18.92;;;4.20;71.10;;;;;;5041453;28;20048;-62
2022/12/10 07:29:31;;;;;;;29.92;16.10;;;4.30;71.20;;;;;;5040474;28;20563;-64
2022/12/10 07:31:57;;;;;;;27.33;15.48;;;4.30;71.10;;;;;;5040009;28;20028;-62
2022/12/10 07:34:23;;;;;;;26.55;16.02;;;4.30;71.00;;;;;;5033947;28;20025;-62
2022/12/10 07:36:48;;;;;;;24.83;15.27;;;4.30;71.00;;;;;;5055371;28;20041;-62
2022/12/10 07:39:17;;;;;;;23.50;14.48;;;4.30;71.10;;;;;;5048281;28;20048;-62
2022/12/10 07:41:52;;;;;;;31.73;17.38;;;4.30;71.00;;;;;;5042832;28;20502;-63
2022/12/10 07:44:22;;;;;;;24.88;14.85;;;4.30;70.90;;;;;;5035771;28;20061;-62
2022/12/10 07:46:49;;;;;;;22.77;14.15;;;4.30;70.90;;;;;;5043357;28;20657;-62
2022/12/10 07:49:15;;;;;;;26.73;13.77;;;4.20;70.80;;;;;;5031546;28;20030;-62
2022/12/10 07:51:45;;;;;;;27.45;15.40;;;4.30;71.00;;;;;;5043713;28;20056;-63
2022/12/10 07:54:11;;;;;;;24.35;14.25;;;4.30;71.10;;;;;;5031123;28;20045;-61
2022/12/10 07:56:37;;;;;;;25.75;14.30;;;4.30;71.20;;;;;;5030567;28;20032;-62
2022/12/10 07:59:02;;;;;;;26.15;14.90;;;4.40;71.20;;;;;;5043250;28;20026;-62
2022/12/10 08:01:28;;;;;;;25.02;15.35;;;4.40;71.00;;;;;;5032609;28;20037;-64
2022/12/10 08:03:56;;;;;;;22.27;14.18;;;4.40;70.90;;;;;;5040885;28;20040;-64
2022/12/10 08:06:22;;;;;;;26.20;14.73;;;4.40;70.80;;;;;;5033615;28;20032;-62
2022/12/10 08:08:50;;;;;;;25.25;15.32;;;4.40;70.60;;;;;;5041828;28;20072;-62
2022/12/10 08:11:17;;;;;;;25.08;15.48;;;4.50;70.70;;;;;;5037136;28;20049;-62
2022/12/10 08:13:43;;;;;;;22.08;13.63;;;4.50;70.70;;;;;;5045042;28;20147;-62
2022/12/10 08:16:18;;;;;;;24.10;14.27;;;4.50;70.50;;;;;;5042613;28;20078;-63
2022/12/10 08:18:45;;;;;;;21.92;13.50;;;4.50;70.40;;;;;;5039560;28;20029;-64
2022/12/10 08:21:16;;;;;;;22.25;12.70;;;4.50;70.50;;;;;;5041243;28;20396;-65
2022/12/10 08:23:42;;;;;;;23.63;12.63;;;4.50;70.50;;;;;;5044191;28;20055;-62
2022/12/10 08:26:10;;;;;;;21.77;13.40;;;4.60;70.40;;;;;;5038509;28;20057;-63
2022/12/10 08:28:36;;;;;;;20.35;13.23;;;4.60;70.20;;;;;;5038487;28;20056;-62
2022/12/10 08:31:02;;;;;;;24.13;13.18;;;4.60;70.10;;;;;;5044638;28;20105;-63
2022/12/10 08:33:28;;;;;;;22.10;13.73;;;4.60;70.20;;;;;;5038816;28;20037;-62
2022/12/10 08:35:59;;;;;;;23.70;14.48;;;4.60;70.20;;;;;;5041029;28;20031;-61
2022/12/10 08:38:25;;;;;;;23.80;14.10;;;4.60;70.20;;;;;;5043056;28;20021;-62
2022/12/10 08:40:51;;;;;;;24.58;14.05;;;4.70;70.30;;;;;;5042935;28;20037;-62
2022/12/10 08:43:17;;;;;;;23.90;14.50;;;4.70;70.10;;;;;;5041877;28;20495;-62
2022/12/10 08:45:42;;;;;;;27.83;15.60;;;4.70;70.10;;;;;;5035120;28;20036;-62
2022/12/10 08:48:08;;;;;;;24.77;14.27;;;4.80;70.20;;;;;;5040976;28;20056;-63
2022/12/10 08:50:34;;;;;;;26.15;15.02;;;4.80;70.00;;;;;;5039039;28;20413;-63
2022/12/10 08:53:00;;;;;;;21.50;13.75;;;4.80;69.70;;;;;;5040283;28;20037;-63
2022/12/10 08:55:26;;;;;;;20.83;13.05;;;4.90;69.70;;;;;;5040365;28;20057;-62
2022/12/10 08:57:51;;;;;;;21.40;13.57;;;4.90;69.40;;;;;;5048553;28;20022;-62
2022/12/10 09:00:18;;;;;;;20.85;12.38;;;4.90;69.20;;;;;;5042729;28;20112;-64
2022/12/10 09:02:44;;;;;;;21.52;13.30;;;4.90;69.10;;;;;;5037834;28;20026;-63
2022/12/10 09:05:10;;;;;;;20.45;13.00;;;4.90;69.20;;;;;;5033374;28;20064;-64
2022/12/10 09:07:36;;;;;;;19.73;12.32;;;4.90;69.40;;;;;;5034729;28;20027;-65
2022/12/10 09:10:02;;;;;;;19.88;11.95;;;4.90;69.20;;;;;;5042814;28;20442;-64
2022/12/10 09:12:28;;;;;;;22.13;13.05;;;5.00;69.20;;;;;;5033581;28;20049;-63
2022/12/10 09:14:54;;;;;;;21.98;13.00;;;5.00;69.10;;;;;;5037331;28;20052;-63
2022/12/10 09:17:20;;;;;;;25.52;12.80;;;5.10;69.00;;;;;;5038723;28;20033;-63
2022/12/10 09:19:45;;;;;;;20.52;12.88;;;5.10;68.90;;;;;;5038977;28;20033;-63
2022/12/10 09:22:11;;;;;;;25.10;13.20;;;5.10;69.60;;;;;;5028448;28;20033;-63
2022/12/10 09:24:37;;;;;;;22.23;12.52;;;5.10;68.70;;;;;;5038825;28;20033;-63
2022/12/10 09:27:03;;;;;;;19.60;12.77;;;5.20;68.50;;;;;;5045230;28;20029;-62
2022/12/10 09:29:29;;;;;;;23.95;12.75;;;5.10;67.90;;;;;;5041821;28;20036;-63
2022/12/10 09:31:54;;;;;;;19.63;12.15;;;5.10;67.90;;;;;;5031767;28;20044;-63
2022/12/10 09:34:21;;;;;;;21.67;12.65;;;5.10;67.70;;;;;;5044419;28;20032;-63
2022/12/10 09:36:47;;;;;;;21.77;12.55;;;5.10;68.00;;;;;;5039641;28;20020;-63
2022/12/10 09:39:13;;;;;;;24.98;12.95;;;5.10;68.20;;;;;;5034942;28;20048;-63
2022/12/10 09:41:47;;;;;;;25.25;13.35;;;5.10;68.10;;;;;;5039200;28;20494;-63
2022/12/10 09:44:19;;;;;;;;;;;5.10;68.00;;;;;;5045553;28;20033;-63
2022/12/10 09:47:15;;;;;;;18.80;10.35;;;5.20;67.60;;;;;;5039611;28;19952;-63
2022/12/10 09:50:04;;;;;;;16.60;10.02;;;5.20;67.30;;;;;;5037569;28;20435;-62
2022/12/10 09:52:39;;;;;;;20.55;10.35;;;5.20;66.90;;;;;;5024266;28;20032;-62
2022/12/10 09:55:13;;;;;;;17.70;10.38;;;5.10;67.30;;;;;;5041701;28;20476;-62
2022/12/10 09:57:42;;;;;;;19.55;9.82;;;5.10;67.20;;;;;;5036699;28;20030;-62
2022/12/10 10:00:20;;;;;;;16.88;9.95;;;5.10;67.30;;;;;;5038078;28;20084;-62
2022/12/10 10:02:46;;;;;;;15.40;9.68;;;5.10;66.80;;;;;;5034405;28;20040;-62
2022/12/10 10:05:22;;;;;;;17.20;9.80;;;5.10;67.30;;;;;;5045962;28;20035;-62
2022/12/10 10:08:10;;;;;;;22.02;9.90;;;5.20;67.30;;;;;;5032197;28;20042;-64
2022/12/10 10:10:38;;;;;;;17.08;9.65;;;5.10;67.40;;;;;;5009494;28;20128;-64
2022/12/10 10:13:06;;;;;;;16.15;9.65;;;5.20;67.30;;;;;;5045490;28;20066;-62
2022/12/10 10:15:35;;;;;;;15.30;9.65;;;5.20;66.90;;;;;;5046599;28;20025;-61
2022/12/10 10:18:12;;;;;;;17.02;9.68;;;5.20;66.70;;;;;;5048873;28;20044;-62
2022/12/10 10:20:37;;;;;;;16.05;10.10;;;5.20;66.40;;;;;;5041045;28;20013;-62
2022/12/10 10:23:03;;;;;;;18.98;11.13;;;5.20;66.80;;;;;;5044275;28;20430;-62
2022/12/10 10:25:28;;;;;;;18.88;11.73;;;5.20;66.90;;;;;;5045172;28;20032;-64
2022/12/10 10:27:55;;;;;;;16.23;9.90;;;5.30;67.00;;;;;;5047736;28;20038;-63
2022/12/10 10:30:23;;;;;;;15.90;10.20;;;5.30;67.00;;;;;;5038849;28;20120;-63
2022/12/10 10:32:56;;;;;;;17.45;11.88;;;5.30;67.00;;;;;;5048185;28;20471;-62
2022/12/10 10:35:24;;;;;;;17.33;11.27;;;5.30;66.60;;;;;;5047805;28;20089;-63
2022/12/10 10:37:51;;;;;;;20.13;11.52;;;5.30;66.60;;;;;;5051203;28;20034;-63
2022/12/10 10:40:27;;;;;;;20.58;11.43;;;5.30;66.50;;;;;;5047213;28;20063;-62
2022/12/10 10:42:56;;;;;;;18.38;11.20;;;5.30;66.40;;;;;;5045600;28;20055;-62
2022/12/10 10:45:38;;;;;;;19.90;11.85;;;5.30;66.50;;;;;;5041907;28;20045;-63
2022/12/10 10:48:12;;;;;;;19.02;11.85;;;5.20;66.40;;;;;;5040077;28;20030;-63
2022/12/10 10:50:45;;;;;;;22.77;13.02;;;5.20;66.50;;;;;;5046479;28;20041;-62
2022/12/10 10:53:30;;;;;;;22.15;13.80;;;5.20;66.40;;;;;;5049097;28;20048;-64
2022/12/10 10:55:59;;;;;;;19.10;12.20;;;5.20;66.20;;;;;;5039763;28;20033;-63
2022/12/10 10:58:26;;;;;;;19.67;12.35;;;5.20;66.50;;;;;;5043969;28;20124;-61
2022/12/10 11:01:07;;;;;;;24.13;13.02;;;5.10;66.20;;;;;;5045355;28;20101;-63
2022/12/10 11:03:35;;;;;;;21.77;11.90;;;5.10;65.80;;;;;;5040934;28;20033;-62
2022/12/10 11:06:04;;;;;;;21.52;13.40;;;5.10;66.40;;;;;;5048940;28;20025;-62
2022/12/10 11:08:31;;;;;;;20.23;12.35;;;5.00;66.10;;;;;;5045088;28;20022;-63
2022/12/10 11:11:19;;;;;;;21.83;12.95;;;5.00;66.50;;;;;;5048285;28;20054;-62
2022/12/10 11:13:46;;;;;;;19.60;11.70;;;5.00;66.30;;;;;;5037463;28;20022;-61
2022/12/10 11:16:16;;;;;;;24.27;13.40;;;4.90;66.70;;;;;;5044656;28;20033;-64
2022/12/10 11:18:57;;;;;;;23.17;13.10;;;4.90;66.40;;;;;;5041328;28;20042;-63
2022/12/10 11:21:23;;;;;;;21.33;12.63;;;4.90;66.40;;;;;;5038004;28;20040;-64
2022/12/10 11:23:54;;;;;;;22.73;12.38;;;4.90;66.80;;;;;;5045752;28;20108;-63
2022/12/10 11:26:38;;;;;;;22.50;12.90;;;4.90;66.80;;;;;;5041776;28;20026;-64
2022/12/10 11:29:36;;;;;;;20.13;12.30;;;4.90;66.60;;;;;;5034025;28;20041;-64
2022/12/10 11:32:30;;;;;;;22.33;12.70;;;4.90;66.40;;;;;;5032859;28;20038;-63
2022/12/10 11:35:22;;;;;;;26.95;17.40;;;4.90;66.60;;;;;;5035161;28;20036;-64
2022/12/10 11:37:54;;;;;;;19.35;12.18;;;4.90;67.00;;;;;;5033535;28;20029;-63
2022/12/10 11:40:31;;;;;;;20.13;11.30;;;4.90;67.10;;;;;;5042603;28;20038;-64
2022/12/10 11:43:00;;;;;;;19.10;11.70;;;4.90;67.20;;;;;;5041350;28;20085;-63
2022/12/10 11:45:41;;;;;;;16.98;11.05;;;5.00;67.20;;;;;;5040497;28;20626;-61
2022/12/10 11:48:09;;;;;;;20.13;12.02;;;5.00;67.00;;;;;;5034647;28;20022;-63
2022/12/10 11:51:08;;;;;;;18.00;11.95;;;5.00;67.00;;;;;;5039569;28;20117;-63
2022/12/10 11:53:51;;;;;;;22.15;12.43;;;5.10;66.80;;;;;;5037296;28;20033;-64
2022/12/10 11:56:26;;;;;;;22.08;12.23;;;5.10;66.60;;;;;;5049624;28;20017;-63
2022/12/10 11:59:04;;;;;;;18.80;11.93;;;5.10;66.80;;;;;;5036511;28;20412;-64
2022/12/10 12:01:56;;;;;;;21.55;12.10;;;5.10;66.80;;;;;;5032829;28;20064;-64
2022/12/10 12:04:40;;;;;;;20.30;11.63;;;5.20;66.90;;;;;;5023463;28;20495;-63
2022/12/10 12:07:25;;;;;;;17.70;11.57;;;5.20;67.10;;;;;;5045420;28;20028;-62
2022/12/10 12:09:56;;;;;;;20.77;12.57;;;5.20;67.40;;;;;;5042136;28;20052;-63
2022/12/10 12:13:06;;;;;;;20.17;12.73;;;5.20;67.10;;;;;;5040108;28;20053;-62
2022/12/10 12:15:42;;;;;;;18.67;11.65;;;5.20;66.60;;;;;;5042582;28;20026;-64
2022/12/10 12:18:27;;;;;;;23.13;13.15;;;5.20;66.80;;;;;;5048596;28;20017;-62
2022/12/10 12:20:57;;;;;;;24.45;12.60;;;5.20;66.40;;;;;;5034520;28;20487;-63
2022/12/10 12:23:39;;;;;;;18.67;12.63;;;5.20;66.80;;;;;;5042221;28;20773;-62
2022/12/10 12:26:15;;;;;;;19.50;12.75;;;5.20;66.70;;;;;;5035467;28;20025;-63
2022/12/10 12:28:50;;;;;;;22.20;12.75;;;5.20;66.50;;;;;;5037101;28;20036;-62
2022/12/10 12:31:30;;;;;;;22.17;13.75;;;5.20;66.70;;;;;;5041609;28;20036;-62
2022/12/10 12:34:00;;;;;;;19.65;12.55;;;5.20;66.60;;;;;;5042917;28;20087;-62
2022/12/10 12:36:29;;;;;;;19.48;12.18;;;5.10;66.80;;;;;;5034951;28;20060;-63
2022/12/10 12:39:36;;;;;;;20.65;12.60;;;5.10;67.00;;;;;;5030029;28;20073;-63
2022/12/10 12:42:31;;;;;;;18.30;11.52;;;5.10;67.00;;;;;;4950436;28;20030;-63
2022/12/10 12:45:16;;;;;;;19.85;12.13;;;5.20;67.00;;;;;;4956012;28;20091;-63
2022/12/10 12:48:11;;;;;;;21.02;14.02;;;5.20;67.20;;;;;;4953328;28;20094;-62
2022/12/10 12:50:52;;;;;;;20.88;11.50;;;5.20;67.10;;;;;;4959388;28;20046;-64
2022/12/10 12:53:21;;;;;;;20.83;12.77;;;5.30;67.00;;;;;;4960518;28;20046;-64
2022/12/10 12:56:21;;;;;;;21.75;12.82;;;5.30;67.00;;;;;;4961598;28;20028;-62
2022/12/10 12:58:58;;;;;;;24.02;13.07;;;5.30;66.60;;;;;;4961183;28;20027;-63
2022/12/10 13:01:26;;;;;;;20.83;12.48;;;5.40;66.70;;;;;;4970154;28;20039;-63
2022/12/10 13:03:53;;;;;;;20.63;12.32;;;5.30;66.70;;;;;;4957684;28;20046;-64